Time;durP1;ratioP1;P1;durP2;ratioP2;P2;SDS_P1;SDS_P2;PMS_P1;PMS_P2;Temp;Humidity;BMP_temperature;BMP_pressure;BME280_temperature;BME280_humidity;BME280_pressure;Samples;Min_cycle;Max_cycle;Signal;HPM_P1;HPM_P2
2022/08/17 00:00:38;;;;;;;10.00;2.05;;;;;;;;;;4854687;29;20045;-72
2022/08/17 00:03:21;;;;;;;8.23;2.00;;;;;;;;;;4856075;29;20049;-72
2022/08/17 00:05:58;;;;;;;9.60;1.83;;;;;;;;;;4858500;29;20536;-73
2022/08/17 00:08:37;;;;;;;8.85;2.30;;;;;;;;;;4858354;29;20049;-76
2022/08/17 00:11:11;;;;;;;8.30;1.75;;;;;;;;;;4858303;29;20053;-73
2022/08/17 00:13:54;;;;;;;14.05;1.90;;;;;;;;;;4858184;29;20061;-73
2022/08/17 00:16:33;;;;;;;12.50;2.20;;;;;;;;;;4858225;29;20060;-74
2022/08/17 00:19:25;;;;;;;11.57;1.65;;;;;;;;;;4858127;29;20058;-73
2022/08/17 00:21:59;;;;;;;7.93;1.92;;;;;;;;;;4858383;29;20057;-72
2022/08/17 00:24:49;;;;;;;11.65;1.80;;;;;;;;;;4859145;29;20553;-73
2022/08/17 00:27:20;;;;;;;14.10;2.17;;;;;;;;;;4858164;29;20057;-73
2022/08/17 00:29:50;;;;;;;10.52;2.08;;;;;;;;;;4857829;29;20053;-73
2022/08/17 00:32:20;;;;;;;12.10;2.17;;;;;;;;;;4858138;29;20056;-72
2022/08/17 00:35:43;;;;;;;;;;;;;;;;;;4857502;29;20061;-72
2022/08/17 00:38:25;;;;;;;9.55;2.25;;;;;;;;;;4858355;29;20320;-73
2022/08/17 00:41:26;;;;;;;5.75;1.80;;;;;;;;;;4856932;29;20409;-72
2022/08/17 00:44:04;;;;;;;11.45;1.85;;;;;;;;;;4857739;29;20056;-73
2022/08/17 00:46:47;;;;;;;16.23;2.53;;;;;;;;;;4857227;29;20057;-72
2022/08/17 00:49:32;;;;;;;;;;;;;;;;;;4858156;29;20528;-72
2022/08/17 00:52:47;;;;;;;13.00;1.83;;;;;;;;;;4856549;29;20399;-76
2022/08/17 00:56:36;;;;;;;8.27;1.98;;;;;;;;;;4859945;29;20061;-72
2022/08/17 01:00:08;;;;;;;8.00;2.03;;;;;;;;;;4858304;29;20057;-73
2022/08/17 01:03:27;;;;;;;11.82;2.30;;;;;;;;;;4857396;29;20498;-72
2022/08/17 01:06:42;;;;;;;10.85;1.88;;;;;;;;;;4859725;29;20430;-73
2022/08/17 01:09:13;;;;;;;6.00;1.55;;;;;;;;;;4857626;29;20050;-72
2022/08/17 01:11:45;;;;;;;9.07;1.60;;;;;;;;;;4857833;29;20072;-71
2022/08/17 01:14:15;;;;;;;10.57;2.28;;;;;;;;;;4856443;29;20049;-72
2022/08/17 01:16:46;;;;;;;11.63;2.10;;;;;;;;;;4855219;29;20064;-72
2022/08/17 01:19:24;;;;;;;8.50;2.22;;;;;;;;;;4855810;29;20061;-72
2022/08/17 01:22:08;;;;;;;9.57;1.90;;;;;;;;;;4855232;29;20049;-72
2022/08/17 01:24:46;;;;;;;12.82;2.25;;;;;;;;;;4855810;29;20049;-72
2022/08/17 01:27:17;;;;;;;12.38;1.90;;;;;;;;;;4995669;23;20488;-73
2022/08/17 01:29:57;;;;;;;12.50;2.40;;;;;;;;;;4856201;29;20057;-73
2022/08/17 01:32:29;;;;;;;11.15;3.42;;;;;;;;;;4855102;29;20398;-73
2022/08/17 01:35:00;;;;;;;7.78;1.85;;;;;;;;;;4856538;29;20421;-73
2022/08/17 01:37:34;;;;;;;10.90;1.90;;;;;;;;;;4857159;29;20531;-73
2022/08/17 01:40:30;;;;;;;7.93;1.83;;;;;;;;;;4856621;29;20049;-73
2022/08/17 01:43:10;;;;;;;12.18;2.90;;;;;;;;;;4856378;29;20443;-75
2022/08/17 01:45:47;;;;;;;6.85;2.13;;;;;;;;;;4856457;29;20049;-73
2022/08/17 01:48:33;;;;;;;7.82;2.42;;;;;;;;;;4856414;29;20057;-73
2022/08/17 01:51:06;;;;;;;8.98;1.92;;;;;;;;;;4856422;29;20045;-73
2022/08/17 01:53:39;;;;;;;13.48;3.90;;;;;;;;;;4856393;29;20409;-73
2022/08/17 01:56:13;;;;;;;10.65;2.30;;;;;;;;;;4856003;29;20053;-73
2022/08/17 01:58:44;;;;;;;12.38;2.53;;;;;;;;;;4856317;29;20053;-73
2022/08/17 02:01:23;;;;;;;8.07;2.10;;;;;;;;;;4856343;29;20045;-73
2022/08/17 02:03:54;;;;;;;12.55;2.30;;;;;;;;;;4854972;29;20049;-73
2022/08/17 02:06:32;;;;;;;9.95;2.60;;;;;;;;;;4856444;29;20057;-73
2022/08/17 02:09:27;;;;;;;11.32;2.63;;;;;;;;;;4856666;29;20046;-73
2022/08/17 02:12:02;;;;;;;6.78;2.58;;;;;;;;;;4856462;29;20049;-72
2022/08/17 02:14:53;;;;;;;8.23;2.70;;;;;;;;;;4856164;29;20061;-73
2022/08/17 02:17:22;;;;;;;;;;;;;;;;;;4855206;29;20057;-73
2022/08/17 02:19:52;;;;;;;8.52;3.00;;;;;;;;;;4856310;29;19955;-73
2022/08/17 02:22:24;;;;;;;6.82;2.28;;;;;;;;;;4856212;29;20065;-73
2022/08/17 02:24:56;;;;;;;6.68;2.63;;;;;;;;;;4855972;29;20057;-73
2022/08/17 02:27:29;;;;;;;;;;;;;;;;;;4855242;29;20421;-73
2022/08/17 02:29:59;;;;;;;9.63;2.72;;;;;;;;;;4852332;29;20394;-72
2022/08/17 02:32:29;;;;;;;9.00;2.58;;;;;;;;;;4853214;29;20424;-73
2022/08/17 02:35:00;;;;;;;5.75;2.97;;;;;;;;;;4854312;29;20045;-72
2022/08/17 02:37:31;;;;;;;5.65;2.70;;;;;;;;;;4853521;29;20532;-72
2022/08/17 02:40:02;;;;;;;9.52;2.90;;;;;;;;;;4853972;29;20054;-73
2022/08/17 02:42:38;;;;;;;7.80;3.20;;;;;;;;;;4853531;29;20539;-72
2022/08/17 02:45:15;;;;;;;7.20;3.20;;;;;;;;;;4856231;29;20050;-73
2022/08/17 02:47:46;;;;;;;7.15;2.85;;;;;;;;;;4855487;29;20053;-73
2022/08/17 02:50:22;;;;;;;8.95;3.30;;;;;;;;;;4855763;29;20069;-72
2022/08/17 02:52:54;;;;;;;9.70;3.35;;;;;;;;;;4855214;29;20049;-73
2022/08/17 02:55:41;;;;;;;4.15;2.78;;;;;;;;;;4853580;29;20061;-73
2022/08/17 02:58:12;;;;;;;8.05;2.80;;;;;;;;;;4854775;29;20060;-74
2022/08/17 03:01:07;;;;;;;6.18;2.92;;;;;;;;;;4855147;29;20060;-73
2022/08/17 03:03:38;;;;;;;8.18;2.72;;;;;;;;;;4854959;29;20402;-73
2022/08/17 03:06:08;;;;;;;7.38;3.10;;;;;;;;;;4855174;29;20061;-73
2022/08/17 03:08:39;;;;;;;8.18;2.58;;;;;;;;;;4855474;29;20528;-73
2022/08/17 03:11:09;;;;;;;5.00;2.38;;;;;;;;;;4855395;29;20069;-73
2022/08/17 03:13:39;;;;;;;12.82;3.30;;;;;;;;;;4855350;29;20049;-73
2022/08/17 03:16:09;;;;;;;7.43;2.70;;;;;;;;;;4855072;29;20083;-73
2022/08/17 03:18:39;;;;;;;7.63;2.58;;;;;;;;;;4853741;29;20057;-72
2022/08/17 03:21:08;;;;;;;;;;;;;;;;;;4855075;29;20068;-73
2022/08/17 03:23:40;;;;;;;8.77;3.08;;;;;;;;;;4855032;29;20387;-73
2022/08/17 03:26:10;;;;;;;6.22;3.50;;;;;;;;;;4853812;29;20060;-73
2022/08/17 03:28:44;;;;;;;9.07;3.90;;;;;;;;;;4853403;29;20058;-73
2022/08/17 03:31:13;;;;;;;11.38;4.65;;;;;;;;;;4855524;29;20045;-73
2022/08/17 03:33:44;;;;;;;9.65;3.95;;;;;;;;;;4854939;29;20053;-73
2022/08/17 03:36:14;;;;;;;12.15;3.45;;;;;;;;;;4854757;29;20049;-73
2022/08/17 03:38:44;;;;;;;6.40;3.08;;;;;;;;;;4854009;29;20064;-73
2022/08/17 03:41:13;;;;;;;;;;;;;;;;;;4855024;29;20421;-73
2022/08/17 03:43:43;;;;;;;8.35;2.85;;;;;;;;;;4854615;29;19928;-73
2022/08/17 03:57:33;;;;;;;13.05;4.78;;;;;;;;;;4854030;29;20452;-73
2022/08/17 04:00:03;;;;;;;;;;;;;;;;;;4855591;29;20425;-72
2022/08/17 04:02:39;;;;;;;8.50;4.15;;;;;;;;;;4858776;29;19924;-72
2022/08/17 04:05:09;;;;;;;10.45;3.80;;;;;;;;;;4854863;29;20064;-73
2022/08/17 04:07:40;;;;;;;9.60;3.60;;;;;;;;;;4854066;29;20060;-73
2022/08/17 04:10:10;;;;;;;9.27;3.50;;;;;;;;;;4853982;29;20552;-73
2022/08/17 04:12:51;;;;;;;;;;;;;;;;;;4854860;29;20056;-73
2022/08/17 04:15:22;;;;;;;9.85;3.85;;;;;;;;;;4854700;29;19947;-73
2022/08/17 04:17:52;;;;;;;11.65;4.63;;;;;;;;;;4854557;29;20053;-72
2022/08/17 04:20:24;;;;;;;8.88;4.38;;;;;;;;;;4854259;29;20528;-73
2022/08/17 04:23:17;;;;;;;8.70;4.15;;;;;;;;;;4855257;29;20378;-73
2022/08/17 04:25:49;;;;;;;7.97;4.05;;;;;;;;;;4854504;29;20057;-73
2022/08/17 04:28:20;;;;;;;10.45;4.63;;;;;;;;;;4854339;29;20072;-73
2022/08/17 04:30:50;;;;;;;8.73;3.72;;;;;;;;;;4854339;29;20060;-73
2022/08/17 04:33:25;;;;;;;8.10;4.40;;;;;;;;;;4853932;29;20861;-73
2022/08/17 04:35:58;;;;;;;11.77;4.43;;;;;;;;;;4854434;29;20056;-73
2022/08/17 04:38:31;;;;;;;13.05;4.65;;;;;;;;;;4854459;29;20528;-73
2022/08/17 04:43:54;;;;;;;13.00;4.55;;;;;;;;;;4854413;29;20064;-73
2022/08/17 04:46:33;;;;;;;10.55;4.95;;;;;;;;;;4854260;29;20069;-73
2022/08/17 04:49:07;;;;;;;9.27;4.68;;;;;;;;;;4854254;29;20065;-73
2022/08/17 04:51:43;;;;;;;7.90;4.25;;;;;;;;;;4856988;29;20529;-73
2022/08/17 04:54:24;;;;;;;9.43;4.57;;;;;;;;;;4857530;29;20053;-73
2022/08/17 04:56:54;;;;;;;9.75;4.00;;;;;;;;;;4857143;29;20045;-73
2022/08/17 04:59:24;;;;;;;10.82;4.57;;;;;;;;;;4857688;29;20065;-73
2022/08/17 05:01:53;;;;;;;;;;;;;;;;;;4858601;29;20054;-73
2022/08/17 05:04:25;;;;;;;7.95;4.00;;;;;;;;;;4857420;29;19935;-73
2022/08/17 05:07:03;;;;;;;10.80;4.70;;;;;;;;;;4857312;29;20064;-73
2022/08/17 05:09:33;;;;;;;9.48;5.15;;;;;;;;;;4857406;29;20057;-73
2022/08/17 05:12:02;;;;;;;;;;;;;;;;;;4857527;29;20061;-73
2022/08/17 05:14:32;;;;;;;9.32;4.65;;;;;;;;;;4857421;29;19939;-73
2022/08/17 05:17:02;;;;;;;;;;;;;;;;;;4857895;29;20520;-73
2022/08/17 05:19:39;;;;;;;9.98;4.43;;;;;;;;;;4857438;29;19935;-72
2022/08/17 05:22:10;;;;;;;9.10;4.35;;;;;;;;;;4856656;29;20547;-73
2022/08/17 05:24:40;;;;;;;;;;;;;;;;;;4857556;29;20904;-73
2022/08/17 05:27:22;;;;;;;9.75;4.35;;;;;;;;;;4856591;29;20273;-72
2022/08/17 05:29:57;;;;;;;9.80;4.03;;;;;;;;;;4857105;29;20041;-72
2022/08/17 05:32:27;;;;;;;8.95;4.53;;;;;;;;;;4857032;29;20049;-73
2022/08/17 05:35:08;;;;;;;7.68;4.18;;;;;;;;;;4856965;29;20061;-73
2022/08/17 05:37:38;;;;;;;9.60;5.35;;;;;;;;;;4856724;29;20049;-72
2022/08/17 05:40:09;;;;;;;11.10;5.30;;;;;;;;;;4855881;29;20525;-73
2022/08/17 05:42:39;;;;;;;15.00;5.75;;;;;;;;;;4856677;29;20057;-73
2022/08/17 05:45:10;;;;;;;12.13;4.65;;;;;;;;;;4856379;29;20076;-73
2022/08/17 05:47:43;;;;;;;10.70;5.53;;;;;;;;;;4856909;29;20061;-73
2022/08/17 05:50:24;;;;;;;13.45;5.82;;;;;;;;;;4856827;29;20049;-73
2022/08/17 05:53:14;;;;;;;13.63;5.35;;;;;;;;;;4856289;29;20041;-73
2022/08/17 05:55:44;;;;;;;10.80;5.05;;;;;;;;;;4856250;29;20513;-73
2022/08/17 05:58:25;;;;;;;;;;;;;;;;;;4857615;29;20053;-73
2022/08/17 06:01:21;;;;;;;10.57;5.22;;;;;;;;;;4855939;29;20288;-72
2022/08/17 06:03:54;;;;;;;11.10;5.38;;;;;;;;;;4856693;29;20052;-73
2022/08/17 06:07:00;;;;;;;10.65;5.18;;;;;;;;;;4855572;29;20065;-73
2022/08/17 06:09:49;;;;;;;13.23;5.60;;;;;;;;;;4856401;29;20050;-73
2022/08/17 06:12:24;;;;;;;9.77;4.95;;;;;;;;;;4856769;29;20053;-73
2022/08/17 06:15:29;;;;;;;11.20;6.20;;;;;;;;;;4856050;29;20052;-72
2022/08/17 06:18:07;;;;;;;14.50;5.15;;;;;;;;;;4855568;29;20165;-73
2022/08/17 06:20:52;;;;;;;11.05;4.85;;;;;;;;;;4855683;29;20520;-72
2022/08/17 06:23:31;;;;;;;11.30;5.35;;;;;;;;;;4856004;29;20045;-72
2022/08/17 06:26:10;;;;;;;11.05;5.20;;;;;;;;;;4856140;29;20053;-72
2022/08/17 06:29:01;;;;;;;13.27;6.20;;;;;;;;;;4855554;29;20058;-72
2022/08/17 06:31:38;;;;;;;14.05;5.85;;;;;;;;;;4856488;29;20053;-73
2022/08/17 06:34:11;;;;;;;13.27;5.10;;;;;;;;;;4856161;29;20160;-72
2022/08/17 06:37:03;;;;;;;13.20;5.00;;;;;;;;;;4855869;29;20079;-72
2022/08/17 06:39:42;;;;;;;16.08;5.00;;;;;;;;;;4855510;29;20535;-73
2022/08/17 06:42:43;;;;;;;9.98;4.70;;;;;;;;;;4855600;29;20057;-72
2022/08/17 06:46:00;;;;;;;8.18;4.93;;;;;;;;;;4855667;29;20045;-72
2022/08/17 06:59:10;;;;;;;12.75;6.38;;;;;;;;;;5124640;27;20431;-71
2022/08/17 07:01:41;;;;;;;12.73;5.90;;;;;;;;;;5124830;28;20066;-71
2022/08/17 07:04:22;;;;;;;8.35;5.20;;;;;;;;;;5124512;28;20048;-71
2022/08/17 07:10:01;;;;;;;9.45;5.45;;;;;;;;;;5124693;28;20612;-71
2022/08/17 07:12:37;;;;;;;12.60;5.40;;;;;;;;;;5124547;28;20493;-71
2022/08/17 07:15:24;;;;;;;11.15;5.10;;;;;;;;;;5124321;28;20816;-71
2022/08/17 07:17:55;;;;;;;9.70;5.28;;;;;;;;;;5124108;28;20047;-71
2022/08/17 07:20:25;;;;;;;8.57;5.00;;;;;;;;;;5124359;28;20047;-71
2022/08/17 07:23:18;;;;;;;11.45;6.00;;;;;;;;;;5124315;28;20050;-71
2022/08/17 07:25:49;;;;;;;13.43;5.20;;;;;;;;;;5124507;28;20043;-71
2022/08/17 07:28:23;;;;;;;11.85;5.63;;;;;;;;;;5124354;28;20051;-71
2022/08/17 07:30:54;;;;;;;7.43;4.63;;;;;;;;;;5124403;28;20972;-71
2022/08/17 07:33:27;;;;;;;10.18;5.32;;;;;;;;;;5124401;28;20074;-71
2022/08/17 07:35:59;;;;;;;12.10;5.30;;;;;;;;;;5124222;28;20046;-72
2022/08/17 07:38:34;;;;;;;12.57;6.00;;;;;;;;;;5124497;28;20055;-71
2022/08/17 07:41:07;;;;;;;10.38;5.72;;;;;;;;;;5123870;28;20509;-71
2022/08/17 07:43:40;;;;;;;13.30;6.05;;;;;;;;;;5122977;28;20058;-71
2022/08/17 07:49:09;;;;;;;14.07;5.55;;;;;;;;;;5104064;28;20322;-71
2022/08/17 07:51:57;;;;;;;10.63;5.43;;;;;;;;;;5103576;28;20413;-71
2022/08/17 07:54:42;;;;;;;10.32;5.25;;;;;;;;;;5103292;28;20051;-71
2022/08/17 07:57:12;;;;;;;10.00;5.10;;;;;;;;;;5103523;28;20518;-71
2022/08/17 07:59:42;;;;;;;;;;;;;;;;;;5092303;28;20051;-71
2022/08/17 08:02:39;;;;;;;9.90;5.65;;;;;;;;;;5087675;28;19931;-71
2022/08/17 08:05:24;;;;;;;22.73;4.82;;;;;;;;;;5090000;28;20051;-71
2022/08/17 08:08:36;;;;;;;15.27;5.50;;;;;;;;;;5089654;28;20081;-71
2022/08/17 08:11:14;;;;;;;21.35;5.82;;;;;;;;;;5089192;28;20044;-71
2022/08/17 08:13:44;;;;;;;9.65;5.75;;;;;;;;;;5089578;28;20040;-71
2022/08/17 08:16:30;;;;;;;30.40;6.45;;;;;;;;;;5089778;28;20047;-71
2022/08/17 08:19:01;;;;;;;16.15;5.13;;;;;;;;;;5090040;28;20051;-71
2022/08/17 08:21:53;;;;;;;21.60;5.45;;;;;;;;;;5088740;28;20043;-71
2022/08/17 08:25:16;;;;;;;15.85;6.75;;;;;;;;;;5089268;28;20046;-71
2022/08/17 08:28:05;;;;;;;11.52;5.53;;;;;;;;;;5086769;28;20060;-71
2022/08/17 08:30:41;;;;;;;13.82;5.00;;;;;;;;;;5089284;28;20044;-71
2022/08/17 08:33:40;;;;;;;21.58;5.50;;;;;;;;;;5089478;28;20094;-72
2022/08/17 08:36:39;;;;;;;23.88;4.72;;;;;;;;;;5088670;28;20040;-72
2022/08/17 08:40:01;;;;;;;14.40;5.03;;;;;;;;;;5088562;28;20055;-72
2022/08/17 08:42:34;;;;;;;10.48;4.20;;;;;;;;;;5071487;28;20060;-72
2022/08/17 08:45:19;;;;;;;26.27;4.88;;;;;;;;;;5089438;28;20063;-71
2022/08/17 08:48:00;;;;;;;19.35;4.53;;;;;;;;;;5088908;28;20047;-72
2022/08/17 08:50:46;;;;;;;17.20;4.13;;;;;;;;;;5088535;28;20055;-72
2022/08/17 08:53:48;;;;;;;11.95;4.22;;;;;;;;;;5089161;28;20049;-73
2022/08/17 08:56:56;;;;;;;11.77;4.03;;;;;;;;;;5088777;28;20032;-72
2022/08/17 09:00:08;;;;;;;37.42;4.63;;;;;;;;;;5088873;28;20047;-72
2022/08/17 09:03:08;;;;;;;20.40;4.20;;;;;;;;;;5088861;28;20517;-72
2022/08/17 09:05:59;;;;;;;8.25;4.05;;;;;;;;;;5088876;28;20524;-72
2022/08/17 09:08:48;;;;;;;26.75;4.95;;;;;;;;;;5088293;28;20044;-71
2022/08/17 09:11:27;;;;;;;10.63;4.97;;;;;;;;;;5087589;28;20044;-71
2022/08/17 09:14:10;;;;;;;8.00;4.20;;;;;;;;;;5088545;28;20059;-70
2022/08/17 09:17:05;;;;;;;25.02;5.15;;;;;;;;;;5088065;28;20036;-71
2022/08/17 09:19:43;;;;;;;17.48;4.93;;;;;;;;;;5087957;28;20044;-72
2022/08/17 09:22:49;;;;;;;9.68;3.92;;;;;;;;;;5088085;28;20063;-72
2022/08/17 09:25:27;;;;;;;11.32;4.60;;;;;;;;;;5067139;28;20059;-71
2022/08/17 09:28:03;;;;;;;19.80;4.40;;;;;;;;;;5087939;28;20055;-71
2022/08/17 09:30:46;;;;;;;6.70;3.83;;;;;;;;;;5088138;28;20040;-71
2022/08/17 09:33:25;;;;;;;6.00;3.05;;;;;;;;;;5086470;28;20387;-71
2022/08/17 09:36:03;;;;;;;10.00;3.80;;;;;;;;;;5086236;28;20040;-72
2022/08/17 09:38:40;;;;;;;13.23;4.03;;;;;;;;;;5086299;28;20075;-71
2022/08/17 09:41:21;;;;;;;12.73;3.42;;;;;;;;;;5087398;28;20052;-72
2022/08/17 09:44:04;;;;;;;17.30;3.83;;;;;;;;;;5087233;28;20809;-73
2022/08/17 09:47:05;;;;;;;29.45;3.35;;;;;;;;;;5087596;28;20047;-71
2022/08/17 09:49:50;;;;;;;19.10;4.07;;;;;;;;;;5087949;28;20110;-72
2022/08/17 09:52:26;;;;;;;19.70;4.35;;;;;;;;;;5085231;28;20048;-71
2022/08/17 09:54:59;;;;;;;15.43;3.20;;;;;;;;;;5086887;28;20055;-72
2022/08/17 09:58:03;;;;;;;5.60;3.08;;;;;;;;;;5086640;28;20048;-72
2022/08/17 10:00:46;;;;;;;10.48;3.45;;;;;;;;;;5087708;28;20407;-72
2022/08/17 10:03:56;;;;;;;6.35;3.47;;;;;;;;;;5087653;28;20039;-71
2022/08/17 10:06:32;;;;;;;8.20;4.18;;;;;;;;;;5084571;28;20051;-77
2022/08/17 10:09:13;;;;;;;5.22;3.17;;;;;;;;;;5087206;28;20054;-71
2022/08/17 10:12:19;;;;;;;9.68;3.53;;;;;;;;;;5087390;28;20044;-73
2022/08/17 10:15:00;;;;;;;6.75;3.33;;;;;;;;;;5086692;28;20039;-72
2022/08/17 10:18:06;;;;;;;12.15;8.73;;;;;;;;;;5087052;28;20050;-71
2022/08/17 10:27:11;;;;;;;5.70;3.30;;;;;;;;;;5086472;28;20048;-71
2022/08/17 10:29:55;;;;;;;5.75;3.72;;;;;;;;;;5086965;28;20047;-72
2022/08/17 10:32:31;;;;;;;8.30;4.88;;;;;;;;;;5086402;28;20044;-78
2022/08/17 10:35:11;;;;;;;4.93;2.88;;;;;;;;;;5086654;28;20052;-71
2022/08/17 10:38:07;;;;;;;8.52;3.65;;;;;;;;;;5087233;28;20054;-71
2022/08/17 10:41:16;;;;;;;7.70;2.97;;;;;;;;;;5083454;28;20040;-71
2022/08/17 10:44:17;;;;;;;9.82;3.08;;;;;;;;;;5080031;28;20059;-71
2022/08/17 10:47:11;;;;;;;7.38;3.45;;;;;;;;;;5086448;28;20410;-71
2022/08/17 10:49:48;;;;;;;16.20;3.95;;;;;;;;;;5084774;28;20044;-70
2022/08/17 10:52:26;;;;;;;13.25;3.55;;;;;;;;;;5086599;28;20486;-71
2022/08/17 10:55:12;;;;;;;10.57;3.58;;;;;;;;;;5086791;28;20039;-70
2022/08/17 10:57:45;;;;;;;29.33;4.63;;;;;;;;;;5086641;28;20055;-71
2022/08/17 11:00:19;;;;;;;27.55;3.28;;;;;;;;;;5085037;28;20075;-71
2022/08/17 11:02:57;;;;;;;9.98;2.90;;;;;;;;;;5086231;28;20040;-71
2022/08/17 11:06:04;;;;;;;33.28;3.72;;;;;;;;;;5086939;28;20478;-71
2022/08/17 11:08:43;;;;;;;33.45;3.30;;;;;;;;;;5086412;28;20490;-71
2022/08/17 11:11:18;;;;;;;31.02;3.95;;;;;;;;;;5086893;28;20398;-70
2022/08/17 11:14:12;;;;;;;22.42;3.33;;;;;;;;;;5087043;28;20146;-71
2022/08/17 11:16:49;;;;;;;17.00;3.65;;;;;;;;;;5086182;28;20048;-71
2022/08/17 11:20:00;;;;;;;10.23;3.08;;;;;;;;;;5086296;28;20406;-72
2022/08/17 11:23:06;;;;;;;21.23;2.83;;;;;;;;;;5086165;28;20383;-72
2022/08/17 11:25:41;;;;;;;21.70;3.15;;;;;;;;;;5086476;28;20052;-72
2022/08/17 11:28:18;;;;;;;7.43;4.72;;;;;;;;;;5085811;28;20040;-73
2022/08/17 11:30:51;;;;;;;6.05;2.80;;;;;;;;;;5085815;28;20047;-71
2022/08/17 11:33:33;;;;;;;9.75;3.20;;;;;;;;;;5086230;28;20055;-70
2022/08/17 11:36:30;;;;;;;15.63;3.00;;;;;;;;;;5090186;28;20051;-70
2022/08/17 11:39:12;;;;;;;27.55;2.45;;;;;;;;;;5090531;28;20048;-71
2022/08/17 11:42:04;;;;;;;42.97;4.65;;;;;;;;;;5088041;28;20406;-71
2022/08/17 11:45:02;;;;;;;5.47;2.60;;;;;;;;;;5089718;28;20047;-71
2022/08/17 11:53:59;;;;;;;25.58;5.72;;;;;;;;;;5089982;28;20044;-69
2022/08/17 11:56:51;;;;;;;7.35;2.97;;;;;;;;;;5089473;28;20055;-70
2022/08/17 11:59:40;;;;;;;9.23;6.20;;;;;;;;;;5090299;28;20036;-70
2022/08/17 12:02:33;;;;;;;10.27;3.17;;;;;;;;;;5089908;28;20051;-70
2022/08/17 12:05:26;;;;;;;6.43;2.90;;;;;;;;;;5089138;28;20046;-71
2022/08/17 12:08:04;;;;;;;11.55;3.35;;;;;;;;;;5090160;28;20522;-70
2022/08/17 12:10:38;;;;;;;11.43;3.38;;;;;;;;;;5089304;28;20044;-70
2022/08/17 12:13:15;;;;;;;6.05;2.60;;;;;;;;;;5089809;28;20051;-72
2022/08/17 12:15:51;;;;;;;3.65;2.30;;;;;;;;;;5089095;28;20044;-71
2022/08/17 12:18:34;;;;;;;6.32;2.47;;;;;;;;;;5089079;28;20048;-71
2022/08/17 12:21:27;;;;;;;11.18;2.80;;;;;;;;;;5089177;28;20063;-73
2022/08/17 12:24:13;;;;;;;3.45;2.30;;;;;;;;;;5089168;28;20051;-70
2022/08/17 12:26:56;;;;;;;8.68;3.10;;;;;;;;;;5089679;28;20036;-70
2022/08/17 12:29:28;;;;;;;9.35;3.45;;;;;;;;;;5088308;28;20059;-70
2022/08/17 12:32:13;;;;;;;5.00;3.28;;;;;;;;;;5089285;28;20071;-71
2022/08/17 12:34:46;;;;;;;4.82;2.85;;;;;;;;;;5089507;28;20054;-71
2022/08/17 12:37:20;;;;;;;13.27;4.40;;;;;;;;;;5089190;28;20040;-71
2022/08/17 12:40:03;;;;;;;4.18;2.97;;;;;;;;;;5088471;28;20048;-71
2022/08/17 12:42:36;;;;;;;5.18;2.80;;;;;;;;;;5088868;28;20036;-71
2022/08/17 12:45:28;;;;;;;7.45;3.00;;;;;;;;;;5088848;28;20040;-70
2022/08/17 12:48:10;;;;;;;9.93;3.42;;;;;;;;;;5074718;28;21096;-71
2022/08/17 12:50:43;;;;;;;4.85;2.58;;;;;;;;;;5088639;28;20051;-72
2022/08/17 12:53:21;;;;;;;5.95;2.95;;;;;;;;;;5086561;28;20056;-70
2022/08/17 12:55:53;;;;;;;6.13;2.70;;;;;;;;;;5088715;28;20498;-71
2022/08/17 12:58:33;;;;;;;3.33;2.20;;;;;;;;;;5087070;28;20051;-71
2022/08/17 13:01:08;;;;;;;6.55;2.63;;;;;;;;;;5089373;28;20044;-71
2022/08/17 13:03:48;;;;;;;10.00;3.33;;;;;;;;;;5088439;28;20040;-70
2022/08/17 13:06:31;;;;;;;3.97;2.67;;;;;;;;;;5088176;28;20047;-71
2022/08/17 13:09:14;;;;;;;4.93;2.75;;;;;;;;;;5087936;28;20043;-71
2022/08/17 13:11:55;;;;;;;3.38;2.30;;;;;;;;;;5088506;28;20513;-71
2022/08/17 13:14:25;;;;;;;4.53;2.90;;;;;;;;;;5088496;28;20040;-71
2022/08/17 13:16:58;;;;;;;4.95;3.80;;;;;;;;;;5088040;28;20043;-77
2022/08/17 13:19:31;;;;;;;8.00;2.92;;;;;;;;;;5087332;28;20529;-71
2022/08/17 13:22:14;;;;;;;5.88;2.70;;;;;;;;;;5088005;28;20048;-74
2022/08/17 13:24:57;;;;;;;7.53;3.85;;;;;;;;;;5088514;28;20372;-79
2022/08/17 13:27:29;;;;;;;6.18;3.63;;;;;;;;;;5088919;28;20050;-71
2022/08/17 13:30:04;;;;;;;4.80;3.50;;;;;;;;;;5087485;28;20054;-71
2022/08/17 13:32:41;;;;;;;6.03;3.38;;;;;;;;;;5087944;28;20411;-72
2022/08/17 13:35:36;;;;;;;6.57;3.10;;;;;;;;;;5088010;28;20044;-72
2022/08/17 13:38:38;;;;;;;3.95;2.60;;;;;;;;;;5088002;28;20040;-75
2022/08/17 13:41:35;;;;;;;5.55;3.00;;;;;;;;;;5085891;28;20757;-73
2022/08/17 13:44:39;;;;;;;16.67;4.20;;;;;;;;;;5087869;28;20516;-73
2022/08/17 13:47:19;;;;;;;5.43;2.83;;;;;;;;;;5065454;28;20052;-74
2022/08/17 13:49:50;;;;;;;4.50;2.80;;;;;;;;;;5087300;28;20048;-73
2022/08/17 13:52:39;;;;;;;5.78;3.08;;;;;;;;;;5087392;28;20417;-74
2022/08/17 13:55:20;;;;;;;4.80;2.65;;;;;;;;;;5088087;28;20507;-73
2022/08/17 13:57:52;;;;;;;3.30;2.20;;;;;;;;;;5087071;28;20052;-74
2022/08/17 14:00:35;;;;;;;4.25;2.50;;;;;;;;;;5087027;28;20059;-74
2022/08/17 14:03:05;;;;;;;6.00;2.75;;;;;;;;;;5087321;28;20752;-73
2022/08/17 14:05:37;;;;;;;5.05;2.47;;;;;;;;;;5087262;28;20036;-72
2022/08/17 14:08:11;;;;;;;4.22;2.67;;;;;;;;;;5087485;28;20040;-72
2022/08/17 14:10:43;;;;;;;3.08;2.63;;;;;;;;;;5085082;28;20064;-73
2022/08/17 14:13:14;;;;;;;5.43;2.55;;;;;;;;;;5087634;28;20784;-73
2022/08/17 14:15:44;;;;;;;3.60;2.05;;;;;;;;;;5087276;28;20070;-73
2022/08/17 14:18:24;;;;;;;4.40;2.30;;;;;;;;;;5087192;28;20048;-73
2022/08/17 14:21:14;;;;;;;6.13;2.90;;;;;;;;;;5087040;28;20040;-72
2022/08/17 14:23:45;;;;;;;4.32;2.10;;;;;;;;;;5087400;28;20051;-75
2022/08/17 14:26:22;;;;;;;9.38;2.20;;;;;;;;;;5087176;28;20510;-73
2022/08/17 14:28:52;;;;;;;9.68;2.90;;;;;;;;;;5086942;28;20414;-73
2022/08/17 14:31:26;;;;;;;6.18;2.30;;;;;;;;;;5086726;28;20051;-73
2022/08/17 14:33:57;;;;;;;5.88;2.33;;;;;;;;;;5087162;28;20051;-73
2022/08/17 14:36:27;;;;;;;6.90;2.33;;;;;;;;;;5087507;28;20055;-78
2022/08/17 14:38:57;;;;;;;2.78;2.22;;;;;;;;;;5086690;28;20106;-73
2022/08/17 14:41:27;;;;;;;3.15;2.05;;;;;;;;;;5086668;28;20063;-73
2022/08/17 14:43:57;;;;;;;3.88;2.60;;;;;;;;;;5086919;28;20059;-73
2022/08/17 14:46:27;;;;;;;2.30;1.92;;;;;;;;;;5086320;28;20063;-73
2022/08/17 14:48:58;;;;;;;3.90;2.17;;;;;;;;;;5087018;28;20044;-73
2022/08/17 14:51:29;;;;;;;4.50;1.80;;;;;;;;;;5086681;28;20056;-73
2022/08/17 14:53:58;;;;;;;3.13;1.85;;;;;;;;;;5086245;28;20048;-73
2022/08/17 14:56:28;;;;;;;8.13;2.97;;;;;;;;;;5086670;28;20062;-72
2022/08/17 14:59:05;;;;;;;2.70;2.15;;;;;;;;;;5086444;28;20411;-74
2022/08/17 15:01:35;;;;;;;3.80;1.88;;;;;;;;;;5086623;28;20048;-73
2022/08/17 15:04:05;;;;;;;4.15;1.98;;;;;;;;;;5086504;28;20044;-74
2022/08/17 15:06:35;;;;;;;2.30;1.67;;;;;;;;;;5086784;28;20056;-73
2022/08/17 15:09:05;;;;;;;2.28;1.67;;;;;;;;;;5088322;28;20051;-72
2022/08/17 15:11:36;;;;;;;3.47;1.70;;;;;;;;;;5090790;28;20044;-73
2022/08/17 15:14:06;;;;;;;3.85;1.80;;;;;;;;;;5090779;28;20044;-72
2022/08/17 15:16:36;;;;;;;2.63;1.73;;;;;;;;;;5089112;28;20059;-73
2022/08/17 15:19:07;;;;;;;3.83;1.75;;;;;;;;;;5090563;28;20059;-73
2022/08/17 15:21:37;;;;;;;2.60;1.88;;;;;;;;;;5090291;28;20040;-74
2022/08/17 15:24:08;;;;;;;3.65;1.55;;;;;;;;;;5090133;28;20039;-74
2022/08/17 15:26:38;;;;;;;2.58;2.20;;;;;;;;;;5088147;28;20414;-74
2022/08/17 15:29:09;;;;;;;3.03;1.77;;;;;;;;;;5090048;28;20498;-72
2022/08/17 15:31:39;;;;;;;3.20;1.95;;;;;;;;;;5088066;28;20056;-77
2022/08/17 15:34:08;;;;;;;3.03;1.92;;;;;;;;;;5090827;28;20063;-73
2022/08/17 15:36:38;;;;;;;6.07;2.28;;;;;;;;;;5090239;28;20044;-73
2022/08/17 15:39:17;;;;;;;3.28;2.20;;;;;;;;;;5089598;28;20052;-73
2022/08/17 15:41:47;;;;;;;5.50;2.00;;;;;;;;;;5090189;28;20052;-73
2022/08/17 15:44:26;;;;;;;2.90;1.92;;;;;;;;;;5089542;28;20055;-73
2022/08/17 15:47:02;;;;;;;3.92;1.98;;;;;;;;;;5089823;28;20052;-74
2022/08/17 15:49:32;;;;;;;2.95;2.22;;;;;;;;;;5089485;28;20048;-73
2022/08/17 15:52:16;;;;;;;3.55;1.98;;;;;;;;;;5089586;28;20048;-73
2022/08/17 15:54:53;;;;;;;4.30;2.10;;;;;;;;;;5089703;28;20531;-73
2022/08/17 15:57:24;;;;;;;3.15;1.95;;;;;;;;;;5087906;28;20071;-73
2022/08/17 15:59:56;;;;;;;2.78;2.00;;;;;;;;;;5089263;28;20056;-73
2022/08/17 16:02:30;;;;;;;4.22;2.08;;;;;;;;;;5089517;28;20043;-73
2022/08/17 16:05:23;;;;;;;13.70;2.70;;;;;;;;;;5089822;28;20044;-72
2022/08/17 16:07:54;;;;;;;3.55;2.42;;;;;;;;;;5088249;28;20052;-78
2022/08/17 16:10:25;;;;;;;4.68;2.42;;;;;;;;;;5089388;28;20063;-73
2022/08/17 16:13:04;;;;;;;4.22;2.20;;;;;;;;;;5089635;28;20044;-73
2022/08/17 16:15:46;;;;;;;3.58;2.28;;;;;;;;;;5089218;28;20048;-73
2022/08/17 16:18:29;;;;;;;6.82;2.42;;;;;;;;;;5089104;28;20063;-72
2022/08/17 16:21:24;;;;;;;3.33;2.28;;;;;;;;;;5086935;28;20055;-73
2022/08/17 16:23:55;;;;;;;2.92;2.30;;;;;;;;;;5089488;28;20047;-73
2022/08/17 16:26:27;;;;;;;8.75;2.42;;;;;;;;;;5089475;28;20051;-72
2022/08/17 16:28:59;;;;;;;5.80;2.08;;;;;;;;;;5089170;28;20506;-74
2022/08/17 16:31:30;;;;;;;6.70;2.25;;;;;;;;;;5088860;28;20056;-76
2022/08/17 16:33:59;;;;;;;3.15;1.52;;;;;;;;;;5089215;28;20044;-72
2022/08/17 16:36:47;;;;;;;4.25;2.00;;;;;;;;;;5089638;28;20048;-73
2022/08/17 16:39:25;;;;;;;3.55;2.00;;;;;;;;;;5088835;28;20047;-72
2022/08/17 16:41:56;;;;;;;2.85;2.03;;;;;;;;;;5088810;28;20043;-76